الصفحة الرئيسية
METAR-TAF:

METAR-TAF

مطار :

مطار فا الدولي

تاهيتي, بولينسيا الفرنسية

دائرة عرض: 17-33S, خط طول: 149-37W, ارتفاع: 2 متر

مراقبة الطقس الحالي

تاريخ ووقت الإصدار 26 دقيقة قبل الساعة 07:00UTC
ريح 3 عقدة من الشرق/الشمال الشرقي
درجة الحرارة 28°درجة مئوية
الرطوبة 79%
ضغط 1013 hPa
الرؤية 10 كم أو أكثر
غيوم قليلة على ارتفاع 2600 قدم

METAR: NTAA 230700Z 07003KT 9999 FEW026 28/24 Q1013 NOSIG

زمن: 21:26 (07:26 UTC)

توقعات

تاريخ ووقت الإصدار 2ساعات و 26 دقيقة قبل الساعة 05:00UTC
التوقعات صالحة من23 الساعة 06 UTC إلى 24 الساعة 12 UTC
ريح 5 عقدةمن اتجاهات متغيرة
الرؤية 10 كم أو أكثر
غيوم قليلة على ارتفاع 2300 قدم
أصبح
من 23 الساعة 19 UTC إلى 23 الساعة 21 UTC
ريح 12 عقدة من الشمال الشرقي

TAF: NTAA 230500Z 2306/2412 VRB05KT 9999 FEW023 BECMG 2319/2321 05012KT

أرصاد الطقس والتوقعات من أكثر من 4000 مطار (تقارير الطقس للمطار METAR والتنبؤ بالطقس بالمطارTAF).

المحطات المتاحة هي النقط الصفراء والحمراء على الخريطة.

حرك المؤشر فوق النقطة لمعرفة اسم المحطة.

ثم انقر لمعرفة أرصاد وتوقعات الطقس.

لتغيير الخارطة: اضغط على الأزرار الخضراء مع رمز الصليب الأسود للتكبير. على الزر الأخضر مع شرطة للتصغير، أو على الأسهم الخضراء للخرائط المجاورة.


METAR-TAF: